createdAt,value
2018-05-26T00:00:11.168Z,24.62
2018-05-26T00:02:40.040Z,24.61
2018-05-26T00:05:11.205Z,24.56
2018-05-26T00:07:39.856Z,24.50
2018-05-26T00:10:12.448Z,24.49
2018-05-26T00:12:41.416Z,24.47
2018-05-26T00:15:12.431Z,24.45
2018-05-26T00:17:41.399Z,24.45
2018-05-26T00:20:11.833Z,24.42
2018-05-26T00:22:44.606Z,24.41
2018-05-26T00:25:13.547Z,24.36
2018-05-26T00:27:42.091Z,24.31
2018-05-26T00:30:11.146Z,24.26
2018-05-26T00:32:40.232Z,24.20
2018-05-26T00:35:08.821Z,24.19
2018-05-26T00:37:37.352Z,24.18
2018-05-26T00:40:10.660Z,24.11
2018-05-26T00:42:39.186Z,24.05
2018-05-26T00:45:07.975Z,24.00
2018-05-26T00:47:36.860Z,24.00
2018-05-26T00:50:06.789Z,23.95
2018-05-26T00:52:35.337Z,23.93
2018-05-26T00:55:05.496Z,23.88
2018-05-26T00:57:33.997Z,23.85
2018-05-26T01:01:07.506Z,23.86
2018-05-26T01:03:36.387Z,23.87
2018-05-26T01:06:05.676Z,23.82
2018-05-26T01:08:39.691Z,23.75
2018-05-26T01:11:09.084Z,23.75
2018-05-26T01:13:39.349Z,23.72
2018-05-26T01:16:07.907Z,23.70
2018-05-26T01:18:38.852Z,23.67
2018-05-26T01:21:09.285Z,23.66
2018-05-26T01:23:39.895Z,23.63
2018-05-26T01:26:08.596Z,23.60
2018-05-26T01:28:37.581Z,23.60
2018-05-26T01:31:06.227Z,23.57
2018-05-26T01:36:08.544Z,23.51
2018-05-26T01:38:37.506Z,23.47
2018-05-26T01:41:06.060Z,23.43
2018-05-26T01:43:35.084Z,23.37
2018-05-26T01:46:04.507Z,23.38
2018-05-26T01:48:33.302Z,23.33
2018-05-26T01:51:05.959Z,23.30
2018-05-26T01:53:34.630Z,23.31
2018-05-26T01:56:09.019Z,23.28
2018-05-26T01:58:38.279Z,23.27
2018-05-26T02:01:07.225Z,23.23
2018-05-26T02:03:36.261Z,23.22
2018-05-26T02:06:06.559Z,23.20
2018-05-26T02:08:35.245Z,23.18
2018-05-26T02:11:07.470Z,23.15
2018-05-26T02:13:36.486Z,23.12
2018-05-26T02:16:05.991Z,23.09
2018-05-26T02:18:39.450Z,23.05
2018-05-26T02:21:08.718Z,22.96
2018-05-26T02:23:37.368Z,22.88
2018-05-26T02:26:05.999Z,22.87
2018-05-26T02:28:40.415Z,22.85
2018-05-26T02:31:09.442Z,22.86
2018-05-26T02:33:37.974Z,22.85
2018-05-26T02:36:07.201Z,22.86
2018-05-26T02:38:35.891Z,22.84
2018-05-26T02:41:05.343Z,22.79
2018-05-26T02:43:35.398Z,22.81
2018-05-26T02:46:05.140Z,22.77
2018-05-26T02:48:45.096Z,22.73
2018-05-26T02:51:14.418Z,22.70
2018-05-26T02:53:43.036Z,22.66
2018-05-26T02:56:12.644Z,22.61
2018-05-26T02:58:41.652Z,22.56
2018-05-26T03:01:10.454Z,22.53
2018-05-26T03:03:45.256Z,22.48
2018-05-26T03:06:19.268Z,22.43
2018-05-26T03:08:53.216Z,22.38
2018-05-26T03:11:32.565Z,22.34
2018-05-26T03:14:06.155Z,22.30
2018-05-26T03:16:37.253Z,22.26
2018-05-26T03:19:05.883Z,22.23
2018-05-26T03:21:34.527Z,22.19
2018-05-26T03:24:05.993Z,22.17
2018-05-26T03:26:34.744Z,22.16
2018-05-26T03:29:03.666Z,22.14
2018-05-26T03:31:33.733Z,22.12
2018-05-26T03:36:37.245Z,22.07
2018-05-26T03:39:06.545Z,22.04
2018-05-26T03:41:35.240Z,22.03
2018-05-26T03:44:05.199Z,21.96
2018-05-26T03:46:34.343Z,21.93
2018-05-26T03:49:04.124Z,21.92
2018-05-26T03:51:34.612Z,21.96
2018-05-26T03:54:03.909Z,22.00
2018-05-26T03:56:43.388Z,21.97
2018-05-26T03:59:18.922Z,21.96
2018-05-26T04:01:47.698Z,21.94
2018-05-26T04:04:16.341Z,21.94
2018-05-26T04:06:45.313Z,21.96
2018-05-26T04:09:19.912Z,21.97
2018-05-26T04:11:48.954Z,21.98
2018-05-26T04:14:20.675Z,21.98
2018-05-26T04:16:49.353Z,21.99
2018-05-26T04:19:18.507Z,21.99
2018-05-26T04:21:47.155Z,22.00
2018-05-26T04:24:16.175Z,21.98
2018-05-26T04:26:45.625Z,21.99
2018-05-26T04:29:14.276Z,21.99
2018-05-26T04:34:22.174Z,22.05
2018-05-26T04:36:56.748Z,22.10
2018-05-26T04:39:25.623Z,22.12
2018-05-26T04:41:54.288Z,22.15
2018-05-26T04:44:24.962Z,22.17
2018-05-26T04:46:53.987Z,22.20
2018-05-26T04:49:22.543Z,22.23
2018-05-26T04:51:52.743Z,22.28
2018-05-26T04:54:21.660Z,22.35
2018-05-26T04:56:50.467Z,22.39
2018-05-26T04:59:19.198Z,22.41
2018-05-26T05:01:50.320Z,22.44
2018-05-26T05:04:19.314Z,22.49
2018-05-26T05:06:55.253Z,22.54
2018-05-26T05:09:24.432Z,22.61
2018-05-26T05:11:56.187Z,22.66
2018-05-26T05:14:24.884Z,22.70
2018-05-26T05:16:53.843Z,22.74
2018-05-26T05:19:22.534Z,22.80
2018-05-26T05:21:51.231Z,22.84
2018-05-26T05:24:20.175Z,22.90
2018-05-26T05:26:48.874Z,22.93
2018-05-26T05:29:24.377Z,22.96
2018-05-26T05:31:53.445Z,22.99
2018-05-26T05:34:21.976Z,23.07
2018-05-26T05:36:50.757Z,23.13
2018-05-26T05:39:19.663Z,23.18
2018-05-26T05:41:49.164Z,23.15
2018-05-26T05:44:18.650Z,23.18
2018-05-26T05:46:51.215Z,23.19
2018-05-26T05:49:20.434Z,23.19
2018-05-26T05:51:51.086Z,23.19
2018-05-26T05:54:21.039Z,23.20
2018-05-26T05:56:50.147Z,23.21
2018-05-26T05:59:19.091Z,23.20
2018-05-26T06:01:48.350Z,23.21
2018-05-26T06:04:17.141Z,23.22
2018-05-26T06:06:45.791Z,23.21
2018-05-26T06:09:21.596Z,23.16
2018-05-26T06:11:50.412Z,23.15
2018-05-26T06:14:19.839Z,23.02
2018-05-26T06:16:49.346Z,22.96
2018-05-26T06:19:18.734Z,22.91
2018-05-26T06:21:47.392Z,22.88
2018-05-26T06:24:18.237Z,22.78
2018-05-26T06:26:47.214Z,22.76
2018-05-26T06:29:16.312Z,22.79
2018-05-26T06:31:45.369Z,22.85
2018-05-26T06:34:14.198Z,22.91
2018-05-26T06:36:48.075Z,22.98
2018-05-26T06:39:18.359Z,23.03
2018-05-26T06:41:47.271Z,23.07
2018-05-26T06:44:16.853Z,23.14
2018-05-26T06:46:46.255Z,23.20
2018-05-26T06:52:18.774Z,23.32
2018-05-26T06:54:48.092Z,23.33
2018-05-26T06:57:16.781Z,23.39
2018-05-26T06:59:46.669Z,23.44
2018-05-26T07:02:15.716Z,23.56
2018-05-26T07:04:44.578Z,23.68
2018-05-26T07:07:14.333Z,23.78
2018-05-26T07:09:44.500Z,23.86
2018-05-26T07:12:14.025Z,23.96
2018-05-26T07:14:43.705Z,24.03
2018-05-26T07:17:12.410Z,24.12
2018-05-26T07:19:41.321Z,24.18
2018-05-26T07:22:10.811Z,24.24
2018-05-26T07:24:45.216Z,24.31
2018-05-26T07:27:13.983Z,24.26
2018-05-26T07:29:42.716Z,24.33
2018-05-26T07:32:11.285Z,24.34
2018-05-26T07:34:40.344Z,24.35
2018-05-26T07:37:09.007Z,24.41
2018-05-26T07:39:37.631Z,24.45
2018-05-26T07:42:06.779Z,24.45
2018-05-26T07:44:35.377Z,24.47
2018-05-26T07:47:05.277Z,24.45
2018-05-26T07:49:34.320Z,24.50
2018-05-26T07:52:06.266Z,24.57
2018-05-26T07:54:34.850Z,24.64
2018-05-26T07:57:03.952Z,24.69
2018-05-26T07:59:32.547Z,24.73
2018-05-26T08:02:03.127Z,24.81
2018-05-26T08:04:31.863Z,24.85
2018-05-26T08:07:00.469Z,24.88
2018-05-26T08:09:29.176Z,24.92
2018-05-26T08:12:00.185Z,24.94
2018-05-26T08:14:28.865Z,24.93
2018-05-26T08:16:57.753Z,24.95
2018-05-26T08:19:27.045Z,24.97
2018-05-26T08:21:55.606Z,25.00
2018-05-26T08:24:29.888Z,25.03
2018-05-26T08:26:58.472Z,25.08
2018-05-26T08:29:27.039Z,24.98
2018-05-26T08:31:57.976Z,24.97
2018-05-26T08:34:26.544Z,25.03
2018-05-26T08:36:56.136Z,25.05
2018-05-26T08:39:25.038Z,25.11
2018-05-26T08:41:56.994Z,25.17
2018-05-26T08:44:25.546Z,25.19
2018-05-26T08:46:55.279Z,25.19
2018-05-26T08:49:23.795Z,25.14
2018-05-26T08:51:53.727Z,25.29
2018-05-26T08:54:22.646Z,25.33
2018-05-26T08:56:51.366Z,25.37
2018-05-26T08:59:20.473Z,25.48
2018-05-26T09:04:46.427Z,25.44
2018-05-26T09:07:15.351Z,25.56
2018-05-26T09:09:45.946Z,25.69
2018-05-26T09:12:14.493Z,25.74
2018-05-26T09:14:50.076Z,25.85
2018-05-26T09:17:18.607Z,25.87
2018-05-26T09:19:47.319Z,25.96
2018-05-26T09:22:16.058Z,26.04
2018-05-26T09:24:44.771Z,26.11
2018-05-26T09:27:13.931Z,26.22
2018-05-26T09:29:42.524Z,26.20
2018-05-26T09:45:16.747Z,26.93
2018-05-26T09:47:45.377Z,27.01
2018-05-26T09:50:14.439Z,26.92
2018-05-26T09:52:43.063Z,26.96
2018-05-26T09:55:11.636Z,27.01
2018-05-26T09:57:41.119Z,27.17
2018-05-26T10:00:09.893Z,27.30
2018-05-26T10:02:38.436Z,27.26
2018-05-26T10:05:08.351Z,27.17
2018-05-26T10:07:36.895Z,27.41
2018-05-26T10:10:08.815Z,27.54
2018-05-26T10:12:39.831Z,27.58
2018-05-26T10:15:08.395Z,27.64
2018-05-26T10:17:36.956Z,27.78
2018-05-26T10:20:09.321Z,27.88
2018-05-26T10:22:43.892Z,28.01
2018-05-26T10:25:12.956Z,28.07
2018-05-26T10:27:41.565Z,28.04
2018-05-26T10:30:10.210Z,28.20
2018-05-26T10:32:43.635Z,28.42
2018-05-26T10:35:12.335Z,28.54
2018-05-26T10:37:41.575Z,28.69
2018-05-26T10:40:11.995Z,28.95
2018-05-26T10:42:41.090Z,28.98
2018-05-26T10:45:09.751Z,29.23
2018-05-26T10:47:38.673Z,29.17
2018-05-26T10:50:07.261Z,29.43
2018-05-26T10:52:41.509Z,29.61
2018-05-26T10:55:10.095Z,29.50
2018-05-26T10:57:39.731Z,29.25
2018-05-26T11:00:08.678Z,29.38
2018-05-26T11:02:37.410Z,29.46
2018-05-26T11:05:06.012Z,29.32
2018-05-26T11:07:35.108Z,29.25
2018-05-26T11:10:06.066Z,29.34
2018-05-26T11:12:35.060Z,29.46
2018-05-26T11:15:04.208Z,29.69
2018-05-26T11:17:32.859Z,29.77
2018-05-26T11:20:02.679Z,29.93
2018-05-26T11:22:32.002Z,30.12
2018-05-26T11:25:01.163Z,30.21
2018-05-26T11:27:29.831Z,30.21
2018-05-26T11:29:58.950Z,30.33
2018-05-26T11:32:27.535Z,30.15
2018-05-26T11:34:57.019Z,30.43
2018-05-26T11:37:25.920Z,30.55
2018-05-26T11:39:55.010Z,30.79
2018-05-26T11:42:23.546Z,31.00
2018-05-26T11:44:53.621Z,31.00
2018-05-26T11:47:22.334Z,31.02
2018-05-26T11:49:55.862Z,31.41
2018-05-26T11:52:24.688Z,31.75
2018-05-26T11:54:53.438Z,31.97
2018-05-26T11:57:21.978Z,31.73
2018-05-26T11:59:50.956Z,31.87
2018-05-26T12:02:19.477Z,32.03
2018-05-26T12:04:48.978Z,32.00
2018-05-26T12:07:17.800Z,32.25
2018-05-26T12:09:46.443Z,32.38
2018-05-26T12:12:15.860Z,32.64
2018-05-26T12:14:44.413Z,32.66
2018-05-26T12:17:17.895Z,32.98
2018-05-26T12:32:37.971Z,33.75
2018-05-26T12:35:06.486Z,33.56
2018-05-26T12:37:35.392Z,33.52
2018-05-26T12:40:05.752Z,33.68
2018-05-26T12:42:34.499Z,34.04
2018-05-26T12:45:03.844Z,34.24
2018-05-26T12:47:37.042Z,34.48
2018-05-26T12:50:06.582Z,34.76
2018-05-26T12:52:35.093Z,34.47
2018-05-26T12:55:04.598Z,35.30
2018-05-26T12:57:33.686Z,35.72
2018-05-26T13:00:03.823Z,35.93
2018-05-26T13:02:32.352Z,36.59
2018-05-26T13:05:01.545Z,37.03
2018-05-26T13:07:32.887Z,37.20
2018-05-26T13:10:01.819Z,37.78
2018-05-26T13:12:30.815Z,38.24
2018-05-26T13:14:59.823Z,38.06
2018-05-26T13:17:29.107Z,38.29
2018-05-26T13:19:58.145Z,38.52
2018-05-26T13:22:26.792Z,38.64
2018-05-26T13:24:56.162Z,37.84
2018-05-26T13:27:29.446Z,37.68
2018-05-26T13:29:58.070Z,38.76
2018-05-26T13:32:26.662Z,39.26
2018-05-26T13:34:55.579Z,40.04
2018-05-26T13:37:28.084Z,40.84
2018-05-26T13:39:57.927Z,41.53
2018-05-26T13:42:26.984Z,42.44
2018-05-26T13:44:55.660Z,43.17
2018-05-26T13:47:24.309Z,43.67
2018-05-26T13:49:53.678Z,44.13
2018-05-26T13:52:23.754Z,44.38
2018-05-26T13:54:52.612Z,44.87
2018-05-26T13:57:23.748Z,45.05
2018-05-26T13:59:52.804Z,44.79
2018-05-26T14:02:24.164Z,44.99
2018-05-26T14:04:54.994Z,45.06
2018-05-26T14:07:24.021Z,44.91
2018-05-26T14:09:54.783Z,45.08
2018-05-26T14:12:24.867Z,45.32
2018-05-26T14:14:53.671Z,45.57
2018-05-26T14:17:22.300Z,45.34
2018-05-26T14:19:53.610Z,45.59
2018-05-26T14:22:23.733Z,45.65
2018-05-26T14:24:52.712Z,45.46
2018-05-26T14:27:23.158Z,45.79
2018-05-26T14:29:52.716Z,46.22
2018-05-26T14:32:21.331Z,46.22
2018-05-26T14:34:55.174Z,45.86
2018-05-26T14:37:24.231Z,45.87
2018-05-26T14:39:53.120Z,45.04
2018-05-26T14:42:22.856Z,44.80
2018-05-26T14:47:31.111Z,45.00
2018-05-26T14:50:10.639Z,45.27
2018-05-26T14:52:39.614Z,44.74
2018-05-26T14:55:11.288Z,43.38
2018-05-26T14:57:39.848Z,42.48
2018-05-26T15:00:08.806Z,42.47
2018-05-26T15:02:37.698Z,42.48
2018-05-26T15:05:06.287Z,41.35
2018-05-26T15:07:35.409Z,40.22
2018-05-26T15:10:05.156Z,38.77
2018-05-26T15:12:39.037Z,37.99
2018-05-26T15:15:08.549Z,37.39
2018-05-26T15:17:37.084Z,37.85
2018-05-26T15:20:06.255Z,38.21
2018-05-26T15:22:35.815Z,38.90
2018-05-26T15:25:06.650Z,39.65
2018-05-26T15:27:35.328Z,39.85
2018-05-26T15:30:06.523Z,39.52
2018-05-26T15:32:35.111Z,38.74
2018-05-26T15:35:03.976Z,37.91
2018-05-26T15:37:34.649Z,36.93
2018-05-26T15:40:06.771Z,36.40
2018-05-26T15:42:35.755Z,36.04
2018-05-26T15:45:06.940Z,35.69
2018-05-26T15:47:36.230Z,35.37
2018-05-26T15:50:11.071Z,35.24
2018-05-26T15:52:40.538Z,35.17
2018-05-26T15:55:09.376Z,35.04
2018-05-26T15:57:38.586Z,34.91
2018-05-26T16:00:07.532Z,34.78
2018-05-26T16:02:36.214Z,34.55
2018-05-26T16:05:06.348Z,34.37
2018-05-26T16:07:35.073Z,34.15
2018-05-26T16:10:07.403Z,33.86
2018-05-26T16:12:36.352Z,33.65
2018-05-26T16:15:05.884Z,33.47
2018-05-26T16:17:34.433Z,33.42
2018-05-26T16:20:04.861Z,33.35
2018-05-26T16:22:34.818Z,33.25
2018-05-26T16:25:04.212Z,33.21
2018-05-26T16:27:32.775Z,33.22
2018-05-26T16:30:04.231Z,33.23
2018-05-26T16:32:32.790Z,33.26
2018-05-26T16:35:02.759Z,33.28
2018-05-26T16:37:36.377Z,33.49
2018-05-26T16:40:05.800Z,33.56
2018-05-26T16:42:34.405Z,33.51
2018-05-26T16:45:03.261Z,33.39
2018-05-26T16:47:31.875Z,33.47
2018-05-26T16:50:00.764Z,33.82
2018-05-26T16:52:29.691Z,34.12
2018-05-26T16:54:58.307Z,34.37
2018-05-26T16:57:27.338Z,34.51
2018-05-26T16:59:56.318Z,34.49
2018-05-26T17:02:24.911Z,34.55
2018-05-26T17:07:27.015Z,34.69
2018-05-26T17:09:55.907Z,34.80
2018-05-26T17:12:24.708Z,34.70
2018-05-26T17:14:54.586Z,34.58
2018-05-26T17:17:23.195Z,34.51
2018-05-26T17:19:51.849Z,34.47
2018-05-26T17:22:20.946Z,34.37
2018-05-26T17:24:49.545Z,34.27
2018-05-26T17:27:18.128Z,34.21
2018-05-26T17:29:47.166Z,34.00
2018-05-26T17:32:15.922Z,33.79
2018-05-26T17:34:44.959Z,33.51
2018-05-26T17:37:13.991Z,33.41
2018-05-26T17:39:42.672Z,33.14
2018-05-26T17:42:11.570Z,33.00
2018-05-26T17:44:40.514Z,32.89
2018-05-26T17:47:11.673Z,32.78
2018-05-26T17:49:40.309Z,32.62
2018-05-26T17:52:09.643Z,32.56
2018-05-26T17:54:38.409Z,32.46
2018-05-26T17:59:40.516Z,32.17
2018-05-26T18:02:09.589Z,32.11
2018-05-26T18:04:38.288Z,32.05
2018-05-26T18:07:12.886Z,32.01
2018-05-26T18:09:41.397Z,31.91
2018-05-26T18:12:10.042Z,31.91
2018-05-26T18:14:38.927Z,31.89
2018-05-26T18:17:07.975Z,31.90
2018-05-26T18:19:47.398Z,31.90
2018-05-26T18:22:16.257Z,31.79
2018-05-26T18:24:45.611Z,31.70
2018-05-26T18:27:14.316Z,31.63
2018-05-26T18:29:43.371Z,31.52
2018-05-26T18:32:12.690Z,31.40
2018-05-26T18:34:45.098Z,31.33
2018-05-26T18:37:14.002Z,31.25
2018-05-26T18:39:42.966Z,31.14
2018-05-26T18:42:11.505Z,31.05
2018-05-26T18:44:40.702Z,30.94
2018-05-26T18:47:10.019Z,30.88
2018-05-26T18:49:38.567Z,30.77
2018-05-26T18:52:07.489Z,30.68
2018-05-26T18:54:36.060Z,30.59
2018-05-26T18:57:04.948Z,30.51
2018-05-26T18:59:34.035Z,30.36
2018-05-26T19:04:45.413Z,30.18
2018-05-26T19:07:14.531Z,30.11
2018-05-26T19:09:43.179Z,30.07
2018-05-26T19:12:14.000Z,30.03
2018-05-26T19:14:42.686Z,29.96
2018-05-26T19:17:11.316Z,29.90
2018-05-26T19:19:40.187Z,29.86
2018-05-26T19:22:10.411Z,29.84
2018-05-26T19:24:38.994Z,29.81
2018-05-26T19:27:08.562Z,29.77
2018-05-26T19:29:39.562Z,29.72
2018-05-26T19:32:08.431Z,29.69
2018-05-26T19:34:37.727Z,29.64
2018-05-26T19:37:07.047Z,29.62
2018-05-26T19:39:35.655Z,29.58
2018-05-26T19:42:06.451Z,29.53
2018-05-26T19:44:35.074Z,29.52
2018-05-26T19:47:07.179Z,29.50
2018-05-26T19:49:37.444Z,29.49
2018-05-26T19:52:09.695Z,29.43
2018-05-26T19:57:14.297Z,29.34
2018-05-26T19:59:42.869Z,29.32
2018-05-26T20:02:11.436Z,29.32
2018-05-26T20:04:51.783Z,29.32
2018-05-26T20:07:20.485Z,29.26
2018-05-26T20:09:49.067Z,29.23
2018-05-26T20:12:20.293Z,29.22
2018-05-26T20:14:49.597Z,29.19
2018-05-26T20:17:18.519Z,29.19
2018-05-26T20:22:27.363Z,29.04
2018-05-26T20:24:56.028Z,28.99
2018-05-26T20:27:24.583Z,28.90
2018-05-26T20:29:54.675Z,28.84
2018-05-26T20:32:23.331Z,28.82
2018-05-26T20:34:52.088Z,28.79
2018-05-26T20:37:21.250Z,28.76
2018-05-26T20:39:54.314Z,28.72
2018-05-26T20:42:23.173Z,28.68
2018-05-26T20:44:52.795Z,28.67
2018-05-26T20:47:21.643Z,28.65
2018-05-26T20:49:50.369Z,28.62
2018-05-26T20:52:19.836Z,28.55
2018-05-26T20:54:49.772Z,28.53
2018-05-26T20:57:18.476Z,28.48
2018-05-26T20:59:53.845Z,28.44
2018-05-26T21:02:22.418Z,28.41
2018-05-26T21:04:53.038Z,28.35
2018-05-26T21:07:21.572Z,28.32
2018-05-26T21:09:50.107Z,28.28
2018-05-26T21:12:18.996Z,28.26
2018-05-26T21:14:47.544Z,28.22
2018-05-26T21:17:16.094Z,28.18
2018-05-26T21:19:44.667Z,28.13
2018-05-26T21:22:14.972Z,28.11
2018-05-26T21:24:43.932Z,28.08
2018-05-26T21:27:12.675Z,28.07
2018-05-26T21:29:41.219Z,27.99
2018-05-26T21:32:10.379Z,27.96
2018-05-26T21:34:38.906Z,27.92
2018-05-26T21:37:07.830Z,27.91
2018-05-26T21:39:37.056Z,27.92
2018-05-26T21:42:05.907Z,27.89
2018-05-26T21:44:34.688Z,27.93
2018-05-26T21:47:07.361Z,27.92
2018-05-26T21:49:36.179Z,27.95
2018-05-26T21:52:08.556Z,27.93
2018-05-26T21:54:37.079Z,27.93
2018-05-26T21:57:05.641Z,27.91
2018-05-26T21:59:34.543Z,27.87
2018-05-26T22:02:07.571Z,27.87
2018-05-26T22:04:36.158Z,27.83
2018-05-26T22:07:05.863Z,27.78
2018-05-26T22:09:34.401Z,27.75
2018-05-26T22:12:04.239Z,27.71
2018-05-26T22:14:33.755Z,27.66
2018-05-26T22:17:03.581Z,27.62
2018-05-26T22:19:32.176Z,27.62
2018-05-26T22:22:00.755Z,27.59
2018-05-26T22:24:30.806Z,27.56
2018-05-26T22:27:00.296Z,27.53
2018-05-26T22:29:28.850Z,27.51
2018-05-26T22:31:58.113Z,27.45
2018-05-26T22:34:26.684Z,27.43
2018-05-26T22:36:55.323Z,27.40
2018-05-26T22:39:24.292Z,27.36
2018-05-26T22:41:53.051Z,27.33
2018-05-26T22:44:22.157Z,27.29
2018-05-26T22:46:51.276Z,27.26
2018-05-26T22:49:24.790Z,27.22
2018-05-26T22:51:53.593Z,27.16
2018-05-26T22:54:22.262Z,27.16
2018-05-26T22:56:51.154Z,27.15
2018-05-26T22:59:20.276Z,27.09
2018-05-26T23:01:48.777Z,27.08
2018-05-26T23:04:17.364Z,27.09
2018-05-26T23:06:56.785Z,27.08
2018-05-26T23:09:25.424Z,27.06
2018-05-26T23:11:59.944Z,27.01
2018-05-26T23:14:28.529Z,27.01
2018-05-26T23:16:57.341Z,26.98
2018-05-26T23:19:26.148Z,26.98
2018-05-26T23:21:56.899Z,26.91
2018-05-26T23:24:26.675Z,26.87
2018-05-26T23:26:55.554Z,26.81
2018-05-26T23:29:28.897Z,26.80
2018-05-26T23:31:58.583Z,26.76
2018-05-26T23:34:27.201Z,26.73
2018-05-26T23:36:57.151Z,26.67
2018-05-26T23:39:26.245Z,26.65
2018-05-26T23:41:56.796Z,26.69
2018-05-26T23:44:25.400Z,26.66
2018-05-26T23:46:54.514Z,26.65
2018-05-26T23:49:27.282Z,26.59
2018-05-26T23:51:56.776Z,26.59
2018-05-26T23:54:25.475Z,26.52
2018-05-26T23:59:34.189Z,26.39
